• Join FlightAware (Why Join?)
  • Login
  • US Flag 
05:53AM EDT


 

Airport Tracker/Info


-or-


 

Live Flight TrackerFlight Track Log ✈ SWA975 ✈ 06-Jul-2013 ✈ KOAK - KDEN

Flight Track Log - Related Links

Times and Time Zones

All times are in EDT time to prevent confusion due to time zone crossing. See the SWA975 flight status page for this flight to view local times or setup timezone preferences in your user account.

Time Position Orientation Groundspeed Altitude Reporting Facility
EDT Latitude Longitude Course Direction KTS MPH feet Rate Location/Type
09:20AM 37.7333 -122.2833 310° West 193 222 2,100  Level Northern Cal TRACON
09:21AM 37.7667 -122.3333 310° West 244 281 4,200 3,000 Climbing Northern Cal TRACON
09:22AM 37.8500 -122.3833 335° Northwest 299 344 8,100 3,180 Climbing Northern Cal TRACON
09:23AM 37.8833 -122.3000 63° Northeast 312 359 11,000 3,000 Climbing Northern Cal TRACON
09:25AM 37.9111 -122.1283 78° East 349 402 15,600 3,120 Climbing Oakland Center
09:26AM 37.9322 -121.9992 78° East 371 427 18,900 3,120 Climbing Oakland Center
09:27AM 37.9592 -121.8644 76° East 392 451 22,000 2,820 Climbing Oakland Center
09:28AM 37.9844 -121.7244 77° East 407 468 24,700 2,400 Climbing Oakland Center
09:29AM 38.0122 -121.5781 76° East 425 489 26,900 2,280 Climbing Oakland Center
09:30AM 38.0433 -121.4069 77° East 447 514 29,400 2,100 Climbing Oakland Center
09:31AM 38.0719 -121.2467 77° East 465 535 31,200 1,680 Climbing Oakland Center
09:32AM 38.1017 -121.0842 77° East 476 548 32,900 1,860 Climbing Oakland Center
09:33AM 38.1311 -120.9194 77° East 482 555 35,000 1,740 Climbing Oakland Center
09:34AM 38.1606 -120.7550 77° East 481 554 36,500 1,380 Climbing Oakland Center
09:35AM 38.1897 -120.5883 77° East 486 559 37,900 1,500 Climbing Oakland Center
09:36AM 38.2197 -120.4208 77° East 488 562 39,600 1,380 Climbing Oakland Center
09:37AM 38.2475 -120.2583 78° East 476 548 40,800 1,140 Climbing Oakland Center
09:37AM 38.2475 -120.2583 78° East 476 548 40,800 180 Level Oakland Center
09:38AM 38.2739 -120.0928 78° East 477 549 41,000 180 Climbing Oakland Center
09:38AM 38.2739 -120.0928 78° East 477 549 41,000  Level Oakland Center
09:39AM 38.3017 -119.9306 78° East 472 543 41,000  Level Oakland Center
09:39AM 38.3017 -119.9306 78° East 472 543 41,000  Level Oakland Center
09:40AM 38.3292 -119.7681 78° East 471 542 41,000  Level Oakland Center
09:40AM 38.3292 -119.7681 78° East 471 542 41,000  Level Oakland Center
09:41AM 38.3564 -119.6056 78° East 470 541 41,000  Level Oakland Center
09:41AM 38.3564 -119.6056 78° East 470 541 41,000  Level Oakland Center
09:42AM 38.3844 -119.4322 78° East 470 541 41,000  Level Oakland Center
09:42AM 38.3844 -119.4322 78° East 470 541 41,000  Level Oakland Center
09:43AM 38.4114 -119.2708 78° East 467 537 41,000  Level Oakland Center
09:43AM 38.4114 -119.2708 78° East 467 537 41,000  Level Oakland Center
09:44AM 38.4378 -119.1061 78° East 475 547 41,000  Level Oakland Center
09:44AM 38.4378 -119.1061 78° East 475 547 41,000  Level Oakland Center
09:45AM 38.4647 -118.9411 78° East 476 548 41,000  Level Oakland Center
09:45AM 38.4647 -118.9411 78° East 476 548 41,000  Level Oakland Center
09:46AM 38.4900 -118.7775 79° East 473 544 41,000  Level Oakland Center
09:46AM 38.4900 -118.7775 79° East 473 544 41,000  Level Oakland Center
09:47AM 38.5211 -118.5800 79° East 475 547 41,000  Level Oakland Center
09:47AM 38.5211 -118.5800 79° East 475 547 41,000  Level Oakland Center
09:48AM 38.5469 -118.4158 79° East 474 545 41,000  Level Oakland Center
09:48AM 38.5469 -118.4158 79° East 474 545 41,000  Level Oakland Center
09:49AM 38.5733 -118.2500 78° East 478 550 41,000  Level Oakland Center
09:49AM 38.5733 -118.2500 78° East 478 550 41,000  Level Oakland Center
09:50AM 38.5986 -118.0817 79° East 476 548 41,000  Level Oakland Center
09:50AM 38.5986 -118.0817 79° East 476 548 41,000  Level Oakland Center
09:51AM 38.6208 -117.9306 79° East 475 547 41,000  Level Oakland Center
09:51AM 38.6208 -117.9306 79° East 475 547 41,000  Level Oakland Center
09:52AM 38.6478 -117.7544 79° East 475 547 41,000  Level Oakland Center
09:52AM 38.6478 -117.7544 79° East 475 547 41,000  Level Oakland Center
09:53AM 38.6703 -117.5983 79° East 471 542 41,000  Level Oakland Center
09:53AM 38.6703 -117.5983 79° East 471 542 41,000  Level Oakland Center
09:54AM 38.6944 -117.4331 79° East 470 541 41,000  Level Oakland Center
09:54AM 38.6944 -117.4331 79° East 470 541 41,000  Level Oakland Center
09:55AM 38.7083 -117.3319 80° East 474 545 41,000  Level Salt Lake Center
09:55AM 38.7083 -117.3319 80° East 474 545 41,000  Level Salt Lake Center
09:56AM 38.7328 -117.1664 79° East 472 543 41,000  Level Salt Lake Center
09:56AM 38.7328 -117.1664 79° East 472 543 41,000  Level Salt Lake Center
09:57AM 38.7558 -117.0000 80° East 471 542 41,000  Level Salt Lake Center
09:57AM 38.7558 -117.0000 80° East 471 542 41,000  Level Salt Lake Center
09:58AM 38.7792 -116.8333 80° East 473 544 41,000  Level Salt Lake Center
09:58AM 38.7792 -116.8333 80° East 473 544 41,000  Level Salt Lake Center
09:59AM 38.8067 -116.6331 80° East 473 544 41,000  Level Salt Lake Center
09:59AM 38.8067 -116.6331 80° East 473 544 41,000  Level Salt Lake Center
10:00AM 38.8294 -116.4672 80° East 473 544 41,000  Level Salt Lake Center
10:00AM 38.8294 -116.4672 80° East 473 544 41,000  Level Salt Lake Center
10:01AM 38.8519 -116.3000 80° East 473 544 41,000  Level Salt Lake Center
10:01AM 38.8519 -116.3000 80° East 473 544 41,000  Level Salt Lake Center
10:02AM 38.8756 -116.1339 80° East 474 545 41,000  Level Salt Lake Center
10:02AM 38.8756 -116.1339 80° East 474 545 41,000  Level Salt Lake Center
10:03AM 38.8972 -115.9661 81° East 475 547 41,000  Level Salt Lake Center
10:03AM 38.8972 -115.9661 81° East 475 547 41,000  Level Salt Lake Center
10:04AM 38.9186 -115.7983 81° East 476 548 41,000  Level Salt Lake Center
10:04AM 38.9186 -115.7983 81° East 476 548 41,000  Level Salt Lake Center
10:05AM 38.9414 -115.6314 80° East 476 548 41,000  Level Salt Lake Center
10:05AM 38.9414 -115.6314 80° East 476 548 41,000  Level Salt Lake Center
10:06AM 38.9628 -115.4633 81° East 477 549 41,000  Level Salt Lake Center
10:06AM 38.9628 -115.4633 81° East 477 549 41,000  Level Salt Lake Center
10:07AM 38.9850 -115.2961 80° East 481 554 41,000  Level Salt Lake Center
10:07AM 38.9850 -115.2961 80° East 481 554 41,000  Level Salt Lake Center
10:08AM 39.0061 -115.1289 81° East 477 549 41,000  Level Salt Lake Center
10:08AM 39.0061 -115.1289 81° East 477 549 41,000  Level Salt Lake Center
10:09AM 39.0314 -114.9281 81° East 473 544 41,000  Level Salt Lake Center
10:09AM 39.0314 -114.9281 81° East 473 544 41,000  Level Salt Lake Center
10:10AM 39.0517 -114.7617 81° East 473 544 41,000  Level Salt Lake Center
10:10AM 39.0517 -114.7617 81° East 473 544 41,000  Level Salt Lake Center
10:11AM 39.0719 -114.5942 81° East 473 544 41,000  Level Salt Lake Center
10:11AM 39.0719 -114.5942 81° East 473 544 41,000  Level Salt Lake Center
10:12AM 39.0922 -114.4269 81° East 473 544 41,000  Level Salt Lake Center
10:12AM 39.0922 -114.4269 81° East 473 544 41,000  Level Salt Lake Center
10:13AM 39.1119 -114.2603 81° East 471 542 41,000  Level Salt Lake Center
10:13AM 39.1119 -114.2603 81° East 471 542 41,000  Level Salt Lake Center
10:14AM 39.1317 -114.0900 81° East 478 550 41,000  Level Salt Lake Center
10:14AM 39.1317 -114.0900 81° East 478 550 41,000  Level Salt Lake Center
10:15AM 39.1506 -113.9211 82° East 478 550 41,000  Level Salt Lake Center
10:15AM 39.1506 -113.9211 82° East 478 550 41,000  Level Salt Lake Center
10:16AM 39.1694 -113.7531 82° East 476 548 41,000  Level Salt Lake Center
10:16AM 39.1694 -113.7531 82° East 476 548 41,000  Level Salt Lake Center
10:17AM 39.1883 -113.5856 82° East 474 545 41,000  Level Salt Lake Center
10:17AM 39.1883 -113.5856 82° East 474 545 41,000  Level Salt Lake Center
10:18AM 39.2100 -113.3856 82° East 471 542 41,000  Level Salt Lake Center
10:18AM 39.2100 -113.3856 82° East 471 542 41,000  Level Salt Lake Center
10:19AM 39.2281 -113.2189 82° East 470 541 41,000  Level Salt Lake Center
10:19AM 39.2281 -113.2189 82° East 470 541 41,000  Level Salt Lake Center
10:20AM 39.2467 -113.0514 82° East 470 541 41,000  Level Salt Lake Center
10:20AM 39.2467 -113.0514 82° East 470 541 41,000  Level Salt Lake Center
10:21AM 39.2631 -112.8839 83° East 470 541 41,000  Level Salt Lake Center
10:21AM 39.2631 -112.8839 83° East 470 541 41,000  Level Salt Lake Center
10:22AM 39.2811 -112.7169 82° East 470 541 41,000  Level Salt Lake Center
10:22AM 39.2811 -112.7169 82° East 470 541 41,000  Level Salt Lake Center
10:23AM 39.3003 -112.5381 82° East 465 535 41,000  Level Salt Lake Center
10:23AM 39.3003 -112.5381 82° East 465 535 41,000  Level Salt Lake Center
10:24AM 39.3289 -112.3725 77° East 471 542 41,000  Level Salt Lake Center
10:24AM 39.3289 -112.3725 77° East 471 542 41,000  Level Salt Lake Center
10:25AM 39.3600 -112.2036 77° East 482 555 41,000  Level Salt Lake Center
10:25AM 39.3600 -112.2036 77° East 482 555 41,000  Level Salt Lake Center
10:26AM 39.3894 -112.0353 77° East 484 557 41,000  Level Salt Lake Center
10:26AM 39.3894 -112.0353 77° East 484 557 41,000  Level Salt Lake Center
10:27AM 39.4200 -111.8681 77° East 482 555 41,000  Level Salt Lake Center
10:27AM 39.4200 -111.8681 77° East 482 555 41,000  Level Salt Lake Center
10:28AM 39.4508 -111.6992 77° East 484 557 41,000  Level Salt Lake Center
10:28AM 39.4508 -111.6992 77° East 484 557 41,000  Level Salt Lake Center
10:29AM 39.4889 -111.4967 76° East 485 558 41,000  Level Salt Lake Center
10:29AM 39.4889 -111.4967 76° East 485 558 41,000  Level Salt Lake Center
10:30AM 39.5175 -111.3264 78° East 487 560 41,000  Level Salt Lake Center
10:30AM 39.5175 -111.3264 78° East 487 560 41,000  Level Salt Lake Center
10:32AM 39.5478 -111.1667 76° East 486 559 41,000  Level Salt Lake Center
10:32AM 39.5478 -111.1667 76° East 486 559 41,000  Level Salt Lake Center
10:33AM 39.5803 -110.9767 77° East 484 557 41,000  Level Salt Lake Center
10:33AM 39.5803 -110.9767 77° East 484 557 41,000  Level Salt Lake Center
10:34AM 39.6097 -110.8119 77° East 490 564 41,000  Level Salt Lake Center
10:34AM 39.6097 -110.8119 77° East 490 564 41,000  Level Salt Lake Center
10:35AM 39.6422 -110.6211 77° East 486 559 41,000  Level Salt Lake Center
10:35AM 39.6422 -110.6211 77° East 486 559 41,000  Level Salt Lake Center
10:36AM 39.6697 -110.4564 78° East 487 560 41,000  Level Salt Lake Center
10:36AM 39.6697 -110.4564 78° East 487 560 41,000  Level Salt Lake Center
10:37AM 39.7025 -110.2661 77° East 484 557 41,000  Level Salt Lake Center
10:37AM 39.7025 -110.2661 77° East 484 557 41,000  Level Salt Lake Center
10:38AM 39.7286 -110.1011 78° East 486 559 41,000  Level Salt Lake Center
10:38AM 39.7286 -110.1011 78° East 486 559 41,000  Level Salt Lake Center
10:39AM 39.7553 -109.9372 78° East 484 557 41,000  Level Salt Lake Center
10:39AM 39.7553 -109.9372 78° East 484 557 41,000  Level Salt Lake Center
10:40AM 39.7872 -109.7450 78° East 487 560 41,000  Level Salt Lake Center
10:40AM 39.7872 -109.7450 78° East 487 560 41,000  Level Salt Lake Center
10:41AM 39.8144 -109.5803 78° East 487 560 41,000  Level Salt Lake Center
10:41AM 39.8144 -109.5803 78° East 487 560 41,000  Level Salt Lake Center
10:42AM 39.8453 -109.3858 78° East 488 562 41,000  Level Salt Lake Center
10:42AM 39.8453 -109.3858 78° East 488 562 41,000  Level Salt Lake Center
10:43AM 39.8719 -109.2186 78° East 490 564 41,000  Level Salt Lake Center
10:43AM 39.8719 -109.2186 78° East 490 564 41,000  Level Salt Lake Center
10:44AM 39.9028 -109.0225 78° East 492 566 41,000  Level Salt Lake Center
10:44AM 39.9028 -109.0225 78° East 492 566 41,000  Level Salt Lake Center
10:45AM 39.9292 -108.8536 78° East 492 566 41,000  Level Salt Lake Center
10:45AM 39.9292 -108.8536 78° East 492 566 41,000  Level Salt Lake Center
10:46AM 39.9547 -108.6847 79° East 491 565 41,000  Level Salt Lake Center
10:46AM 39.9547 -108.6847 79° East 491 565 41,000  Level Salt Lake Center
10:47AM 39.9839 -108.4903 79° East 486 559 41,000  Level Salt Lake Center
10:47AM 39.9839 -108.4903 79° East 486 559 41,000  Level Salt Lake Center
10:48AM 40.0092 -108.3219 79° East 487 560 41,000  Level Denver Center
10:48AM 40.0092 -108.3219 79° East 487 560 41,000  Level Denver Center
10:49AM 40.0372 -108.1278 79° East 487 560 41,000  Level Denver Center
10:49AM 40.0372 -108.1278 79° East 487 560 41,000 -600 Level Denver Center
10:50AM 40.0622 -107.9608 79° East 489 563 40,300 -600 Descending Denver Center
10:50AM 40.0622 -107.9608 79° East 489 563 40,300 -2,460 Level Denver Center
10:51AM 40.1050 -107.7375 76° East 495 570 37,800 -2,460 Descending Denver Center
10:51AM 40.1050 -107.7375 76° East 495 570 37,800 -780 Level Denver Center
10:52AM 40.1403 -107.5728 74° East 493 567 37,000 -780 Descending Denver Center
10:52AM 40.1403 -107.5728 74° East 493 567 37,000  Level Denver Center
10:53AM 40.2497 -107.4372 43° Northeast 481 554 37,000  Level Denver Center
10:53AM 40.2497 -107.4372 43° Northeast 481 554 37,000  Level Denver Center
10:54AM 40.3417 -107.3231 43° Northeast 476 548 37,000  Level Denver Center
10:54AM 40.3417 -107.3231 43° Northeast 476 548 37,000  Level Denver Center
10:55AM 40.4192 -107.2294 43° Northeast 475 547 37,000  Level Denver Center
10:55AM 40.4192 -107.2294 43° Northeast 475 547 37,000 -780 Level Denver Center
10:57AM 40.4833 -107.0247 68° East 485 558 36,200 -780 Descending Denver Center
10:57AM 40.4833 -107.0247 68° East 485 558 36,200 -1,380 Level Denver Center
10:58AM 40.4758 -106.8972 94° East 477 549 34,800 -1,380 Descending Denver Center
10:58AM 40.4758 -106.8972 94° East 477 549 34,800 -3,540 Level Denver Center
10:59AM 40.4694 -106.6650 92° East 483 556 31,100 -3,540 Descending Denver Center
10:59AM 40.4694 -106.6650 92° East 483 556 31,100 -120 Level Denver Center
11:00AM 40.4636 -106.4761 92° East 482 555 31,000 -120 Descending Denver Center
11:00AM 40.4636 -106.4761 92° East 482 555 31,000 -1,020 Level Denver Center
11:01AM 40.4575 -106.3147 93° East 466 536 30,000 -1,020 Descending Denver Center
11:01AM 40.4575 -106.3147 93° East 466 536 30,000 -1,020 Level Denver Center
11:02AM 40.4506 -106.1561 93° East 450 518 29,000 -1,020 Descending Denver Center
11:02AM 40.4506 -106.1561 93° East 450 518 29,000 -1,020 Level Denver Center
11:03AM 40.4450 -105.9933 93° East 448 516 28,000 -1,020 Descending Denver Center
11:03AM 40.4450 -105.9933 93° East 448 516 28,000 -1,680 Level Denver Center
11:04AM 40.4161 -105.8058 101° East 438 504 26,300 -1,680 Descending Denver Center
11:04AM 40.4161 -105.8058 101° East 438 504 26,300 -2,040 Level Denver Center
11:05AM 40.3922 -105.6536 102° East 430 495 24,200 -2,040 Descending Denver Center
11:05AM 40.3922 -105.6536 102° East 430 495 24,200 -2,040 Level Denver Center
11:06AM 40.3675 -105.5089 103° East 413 475 22,100 -2,040 Descending Denver Center
11:06AM 40.3675 -105.5089 103° East 413 475 22,100 -1,260 Level Denver Center
11:07AM 40.3228 -105.3819 115° Southeast 363 418 20,800 -1,260 Descending Denver Center
11:07AM 40.3228 -105.3819 115° Southeast 363 418 20,800 -1,920 Level Denver Center
11:08AM 40.2547 -105.2750 130° Southeast 351 404 18,900 -1,920 Descending Denver Center
11:08AM 40.2547 -105.2750 130° Southeast 351 404 18,900 -1,680 Level Denver Center
11:09AM 40.1922 -105.1792 130° Southeast 345 397 17,200 -1,680 Descending Denver Center
11:09AM 40.1922 -105.1792 130° Southeast 345 397 17,200 -240 Level Denver Center
11:10AM 40.1275 -105.0767 130° Southeast 338 389 17,000 -240 Descending Denver Center
11:10AM 40.1275 -105.0767 130° Southeast 338 389 17,000 -420 Level Denver Center
11:11AM 40.0822 -105.0067 130° Southeast 331 381 16,600 -420 Descending Denver Center
11:11AM 40.0822 -105.0067 130° Southeast 331 381 16,600 -1,560 Level Denver Center
11:12AM 40.0117 -104.8978 130° Southeast 321 369 15,000 -1,560 Descending Denver Center
11:12AM 40.0117 -104.8978 130° Southeast 321 369 15,000 -1,380 Level Denver Center
11:13AM 39.9717 -104.7975 117° Southeast 300 345 13,600 -1,380 Descending Denver Center
11:13AM 39.9717 -104.7975 117° Southeast 300 345 13,600 -1,080 Level Denver Center
11:14AM 39.9697 -104.6944 91° East 283 326 12,500 -1,080 Descending Denver Center
11:14AM 39.9697 -104.6944 91° East 283 326 12,500 -1,200 Level Denver Center
11:15AM 39.9669 -104.5903 92° East 267 307 11,300 -1,200 Descending Denver Center
11:15AM 39.9669 -104.5903 92° East 267 307 11,300 -300 Level Denver Center
11:16AM 39.9642 -104.4961 92° East 262 302 11,000 -300 Descending Denver Center
11:16AM 39.9642 -104.4961 92° East 262 302 11,000 -600 Level Denver Center
11:17AM 39.9608 -104.4178 93° East 219 252 10,400 -600 Descending Denver Center
11:17AM 39.9608 -104.4178 93° East 219 252 10,400 -1,080 Level Denver Center
11:18AM 39.9342 -104.3553 119° Southeast 220 253 9,300 -1,080 Descending Denver Center
11:18AM 39.9342 -104.3553 119° Southeast 220 253 9,300 -420 Level Denver Center
11:19AM 39.8783 -104.3611 185° South 212 244 8,900 -420 Descending Denver Center
11:19AM 39.8783 -104.3611 185° South 212 244 8,900  Level Denver Center
11:21AM 39.7658 -104.4816 219° Southwest  Level FlightAware Approximate
11:28AM 39.8500 -104.6667 North  Level FlightAware Approximate
11:29AM 39.8617 -104.6732 North  Level Estimated
11:30AM 39.8617 -104.6732 North  Level Estimated